sensor_id;sensor_type;location;lat;lon;timestamp;P1;durP1;ratioP1;P2;durP2;ratioP2
74892;SDS011;63446;56.272;43.922;2022-12-18T00:01:20;22.33;;;7.20;;
74892;SDS011;63446;56.272;43.922;2022-12-18T00:03:52;20.90;;;6.30;;
74892;SDS011;63446;56.272;43.922;2022-12-18T00:06:19;30.25;;;8.82;;
74892;SDS011;63446;56.272;43.922;2022-12-18T00:08:45;28.45;;;8.57;;
74892;SDS011;63446;56.272;43.922;2022-12-18T00:11:13;25.10;;;7.05;;
74892;SDS011;63446;56.272;43.922;2022-12-18T00:13:40;17.57;;;4.77;;
74892;SDS011;63446;56.272;43.922;2022-12-18T00:16:07;19.65;;;6.18;;
74892;SDS011;63446;56.272;43.922;2022-12-18T00:18:35;24.73;;;7.72;;
74892;SDS011;63446;56.272;43.922;2022-12-18T00:21:02;22.15;;;7.15;;
74892;SDS011;63446;56.272;43.922;2022-12-18T00:23:30;20.30;;;6.57;;
74892;SDS011;63446;56.272;43.922;2022-12-18T00:26:00;27.37;;;8.70;;
74892;SDS011;63446;56.272;43.922;2022-12-18T00:28:30;23.65;;;7.10;;
74892;SDS011;63446;56.272;43.922;2022-12-18T00:31:03;23.60;;;8.40;;
74892;SDS011;63446;56.272;43.922;2022-12-18T00:33:30;25.90;;;7.93;;
74892;SDS011;63446;56.272;43.922;2022-12-18T00:38:53;27.00;;;7.90;;
74892;SDS011;63446;56.272;43.922;2022-12-18T00:41:20;18.00;;;6.05;;
74892;SDS011;63446;56.272;43.922;2022-12-18T00:44:06;22.50;;;7.78;;
74892;SDS011;63446;56.272;43.922;2022-12-18T00:46:34;20.45;;;5.95;;
74892;SDS011;63446;56.272;43.922;2022-12-18T00:49:01;15.20;;;5.97;;
74892;SDS011;63446;56.272;43.922;2022-12-18T00:51:27;19.83;;;7.13;;
74892;SDS011;63446;56.272;43.922;2022-12-18T00:53:53;22.42;;;8.10;;
74892;SDS011;63446;56.272;43.922;2022-12-18T00:56:19;13.52;;;5.55;;
74892;SDS011;63446;56.272;43.922;2022-12-18T00:58:48;9.90;;;3.10;;
74892;SDS011;63446;56.272;43.922;2022-12-18T01:01:15;16.23;;;5.57;;
74892;SDS011;63446;56.272;43.922;2022-12-18T01:03:40;14.95;;;4.93;;
74892;SDS011;63446;56.272;43.922;2022-12-18T01:06:07;15.00;;;4.97;;
74892;SDS011;63446;56.272;43.922;2022-12-18T01:08:34;11.60;;;3.63;;
74892;SDS011;63446;56.272;43.922;2022-12-18T01:11:01;26.85;;;7.75;;
74892;SDS011;63446;56.272;43.922;2022-12-18T01:13:33;20.98;;;6.38;;
74892;SDS011;63446;56.272;43.922;2022-12-18T01:15:58;11.60;;;3.97;;
74892;SDS011;63446;56.272;43.922;2022-12-18T01:18:24;15.77;;;5.93;;
74892;SDS011;63446;56.272;43.922;2022-12-18T01:20:50;16.97;;;5.17;;
74892;SDS011;63446;56.272;43.922;2022-12-18T01:23:16;12.38;;;3.58;;
74892;SDS011;63446;56.272;43.922;2022-12-18T01:25:41;20.92;;;6.30;;
74892;SDS011;63446;56.272;43.922;2022-12-18T01:28:08;16.33;;;6.17;;
74892;SDS011;63446;56.272;43.922;2022-12-18T01:30:34;20.77;;;5.88;;
74892;SDS011;63446;56.272;43.922;2022-12-18T01:33:00;9.35;;;2.70;;
74892;SDS011;63446;56.272;43.922;2022-12-18T01:35:27;17.10;;;5.70;;
74892;SDS011;63446;56.272;43.922;2022-12-18T01:37:54;15.15;;;5.05;;
74892;SDS011;63446;56.272;43.922;2022-12-18T01:40:20;20.48;;;7.40;;
74892;SDS011;63446;56.272;43.922;2022-12-18T01:42:53;14.73;;;4.03;;
74892;SDS011;63446;56.272;43.922;2022-12-18T01:47:59;19.23;;;6.72;;
74892;SDS011;63446;56.272;43.922;2022-12-18T01:50:32;16.45;;;4.88;;
74892;SDS011;63446;56.272;43.922;2022-12-18T01:55:39;24.48;;;7.75;;
74892;SDS011;63446;56.272;43.922;2022-12-18T01:58:12;25.33;;;7.80;;
74892;SDS011;63446;56.272;43.922;2022-12-18T02:00:38;17.98;;;5.18;;
74892;SDS011;63446;56.272;43.922;2022-12-18T02:03:05;16.23;;;6.55;;
74892;SDS011;63446;56.272;43.922;2022-12-18T02:11:10;18.08;;;6.38;;
74892;SDS011;63446;56.272;43.922;2022-12-18T02:24:58;23.42;;;8.32;;
74892;SDS011;63446;56.272;43.922;2022-12-18T02:27:32;24.08;;;6.25;;
74892;SDS011;63446;56.272;43.922;2022-12-18T02:30:01;21.27;;;6.55;;
74892;SDS011;63446;56.272;43.922;2022-12-18T02:32:33;16.83;;;4.30;;
74892;SDS011;63446;56.272;43.922;2022-12-18T02:35:04;14.77;;;4.30;;
74892;SDS011;63446;56.272;43.922;2022-12-18T02:37:33;12.85;;;4.22;;
74892;SDS011;63446;56.272;43.922;2022-12-18T02:40:02;17.58;;;5.32;;
74892;SDS011;63446;56.272;43.922;2022-12-18T02:42:32;10.30;;;2.85;;
74892;SDS011;63446;56.272;43.922;2022-12-18T02:44:58;10.98;;;2.88;;
74892;SDS011;63446;56.272;43.922;2022-12-18T02:47:27;11.77;;;3.63;;
74892;SDS011;63446;56.272;43.922;2022-12-18T02:58:30;13.80;;;4.80;;
74892;SDS011;63446;56.272;43.922;2022-12-18T03:01:33;15.17;;;4.50;;
74892;SDS011;63446;56.272;43.922;2022-12-18T03:04:09;6.00;;;2.38;;
74892;SDS011;63446;56.272;43.922;2022-12-18T03:06:43;14.13;;;4.72;;
74892;SDS011;63446;56.272;43.922;2022-12-18T03:09:36;11.32;;;3.33;;
74892;SDS011;63446;56.272;43.922;2022-12-18T03:12:14;15.13;;;3.53;;
74892;SDS011;63446;56.272;43.922;2022-12-18T03:17:26;11.55;;;3.67;;
74892;SDS011;63446;56.272;43.922;2022-12-18T03:19:56;11.88;;;3.90;;
74892;SDS011;63446;56.272;43.922;2022-12-18T03:22:30;13.30;;;4.15;;
74892;SDS011;63446;56.272;43.922;2022-12-18T03:25:00;6.63;;;2.28;;
74892;SDS011;63446;56.272;43.922;2022-12-18T03:27:30;14.07;;;4.37;;
74892;SDS011;63446;56.272;43.922;2022-12-18T03:30:05;11.52;;;3.65;;
74892;SDS011;63446;56.272;43.922;2022-12-18T03:35:12;6.95;;;2.50;;
74892;SDS011;63446;56.272;43.922;2022-12-18T03:37:42;12.80;;;4.25;;
74892;SDS011;63446;56.272;43.922;2022-12-18T03:40:08;10.17;;;2.17;;
74892;SDS011;63446;56.272;43.922;2022-12-18T03:45:35;11.98;;;3.88;;
74892;SDS011;63446;56.272;43.922;2022-12-18T03:48:08;11.53;;;3.53;;
74892;SDS011;63446;56.272;43.922;2022-12-18T03:53:52;9.57;;;3.53;;
74892;SDS011;63446;56.272;43.922;2022-12-18T03:56:31;9.82;;;2.85;;
74892;SDS011;63446;56.272;43.922;2022-12-18T03:59:02;8.82;;;2.72;;
74892;SDS011;63446;56.272;43.922;2022-12-18T04:01:32;12.83;;;4.27;;
74892;SDS011;63446;56.272;43.922;2022-12-18T04:04:04;11.05;;;3.85;;
74892;SDS011;63446;56.272;43.922;2022-12-18T04:06:35;7.30;;;2.13;;
74892;SDS011;63446;56.272;43.922;2022-12-18T04:09:04;12.00;;;4.15;;
74892;SDS011;63446;56.272;43.922;2022-12-18T04:11:34;12.77;;;4.05;;
74892;SDS011;63446;56.272;43.922;2022-12-18T04:14:02;6.73;;;2.50;;
74892;SDS011;63446;56.272;43.922;2022-12-18T04:16:29;10.27;;;2.92;;
74892;SDS011;63446;56.272;43.922;2022-12-18T04:18:59;12.20;;;3.47;;
74892;SDS011;63446;56.272;43.922;2022-12-18T04:21:27;11.15;;;3.92;;
74892;SDS011;63446;56.272;43.922;2022-12-18T04:23:53;11.47;;;3.97;;
74892;SDS011;63446;56.272;43.922;2022-12-18T04:26:21;11.32;;;4.30;;
74892;SDS011;63446;56.272;43.922;2022-12-18T04:29:00;11.30;;;3.30;;
74892;SDS011;63446;56.272;43.922;2022-12-18T04:31:27;12.52;;;4.50;;
74892;SDS011;63446;56.272;43.922;2022-12-18T04:33:53;7.60;;;2.50;;
74892;SDS011;63446;56.272;43.922;2022-12-18T04:36:19;12.38;;;3.90;;
74892;SDS011;63446;56.272;43.922;2022-12-18T04:38:47;8.23;;;2.92;;
74892;SDS011;63446;56.272;43.922;2022-12-18T04:41:15;10.98;;;3.83;;
74892;SDS011;63446;56.272;43.922;2022-12-18T04:43:43;6.17;;;1.80;;
74892;SDS011;63446;56.272;43.922;2022-12-18T04:46:08;10.45;;;3.38;;
74892;SDS011;63446;56.272;43.922;2022-12-18T04:48:36;11.60;;;3.55;;
74892;SDS011;63446;56.272;43.922;2022-12-18T04:51:03;12.13;;;3.55;;
74892;SDS011;63446;56.272;43.922;2022-12-18T04:53:30;10.43;;;2.97;;
74892;SDS011;63446;56.272;43.922;2022-12-18T04:56:05;10.40;;;4.22;;
74892;SDS011;63446;56.272;43.922;2022-12-18T04:58:34;13.43;;;4.77;;
74892;SDS011;63446;56.272;43.922;2022-12-18T05:01:01;10.35;;;4.03;;
74892;SDS011;63446;56.272;43.922;2022-12-18T05:03:29;7.47;;;2.78;;
74892;SDS011;63446;56.272;43.922;2022-12-18T05:05:54;12.02;;;3.92;;
74892;SDS011;63446;56.272;43.922;2022-12-18T05:08:20;12.73;;;4.03;;
74892;SDS011;63446;56.272;43.922;2022-12-18T05:10:46;15.07;;;4.85;;
74892;SDS011;63446;56.272;43.922;2022-12-18T05:13:12;13.70;;;4.97;;
74892;SDS011;63446;56.272;43.922;2022-12-18T05:15:38;7.10;;;2.53;;
74892;SDS011;63446;56.272;43.922;2022-12-18T05:18:04;14.48;;;4.47;;
74892;SDS011;63446;56.272;43.922;2022-12-18T05:20:30;16.87;;;5.00;;
74892;SDS011;63446;56.272;43.922;2022-12-18T05:22:56;15.10;;;5.10;;
74892;SDS011;63446;56.272;43.922;2022-12-18T05:25:23;15.20;;;4.97;;
74892;SDS011;63446;56.272;43.922;2022-12-18T05:27:49;14.43;;;4.40;;
74892;SDS011;63446;56.272;43.922;2022-12-18T05:30:15;12.93;;;4.33;;
74892;SDS011;63446;56.272;43.922;2022-12-18T05:32:41;12.00;;;4.53;;
74892;SDS011;63446;56.272;43.922;2022-12-18T05:35:07;11.98;;;4.13;;
74892;SDS011;63446;56.272;43.922;2022-12-18T05:37:35;11.65;;;3.95;;
74892;SDS011;63446;56.272;43.922;2022-12-18T05:40:02;12.77;;;4.70;;
74892;SDS011;63446;56.272;43.922;2022-12-18T05:42:28;10.15;;;3.75;;
74892;SDS011;63446;56.272;43.922;2022-12-18T05:44:55;14.25;;;4.70;;
74892;SDS011;63446;56.272;43.922;2022-12-18T05:47:21;11.53;;;4.47;;
74892;SDS011;63446;56.272;43.922;2022-12-18T05:49:47;13.68;;;4.63;;
74892;SDS011;63446;56.272;43.922;2022-12-18T05:52:13;11.75;;;4.90;;
74892;SDS011;63446;56.272;43.922;2022-12-18T05:54:38;12.73;;;4.50;;
74892;SDS011;63446;56.272;43.922;2022-12-18T05:57:04;11.52;;;3.60;;
74892;SDS011;63446;56.272;43.922;2022-12-18T05:59:30;11.70;;;3.95;;
74892;SDS011;63446;56.272;43.922;2022-12-18T06:01:56;10.20;;;3.90;;
74892;SDS011;63446;56.272;43.922;2022-12-18T06:04:22;11.35;;;3.92;;
74892;SDS011;63446;56.272;43.922;2022-12-18T06:06:48;9.80;;;4.10;;
74892;SDS011;63446;56.272;43.922;2022-12-18T06:09:14;10.90;;;3.92;;
74892;SDS011;63446;56.272;43.922;2022-12-18T06:11:40;10.32;;;3.85;;
74892;SDS011;63446;56.272;43.922;2022-12-18T06:14:06;10.75;;;3.80;;
74892;SDS011;63446;56.272;43.922;2022-12-18T06:16:33;12.88;;;4.35;;
74892;SDS011;63446;56.272;43.922;2022-12-18T06:18:59;13.15;;;4.25;;
74892;SDS011;63446;56.272;43.922;2022-12-18T06:21:28;11.93;;;4.37;;
74892;SDS011;63446;56.272;43.922;2022-12-18T06:23:54;12.85;;;4.10;;
74892;SDS011;63446;56.272;43.922;2022-12-18T06:26:20;12.70;;;4.78;;
74892;SDS011;63446;56.272;43.922;2022-12-18T06:28:46;10.40;;;3.97;;
74892;SDS011;63446;56.272;43.922;2022-12-18T06:31:13;11.70;;;3.97;;
74892;SDS011;63446;56.272;43.922;2022-12-18T06:33:39;13.45;;;4.43;;
74892;SDS011;63446;56.272;43.922;2022-12-18T06:36:06;9.23;;;3.63;;
74892;SDS011;63446;56.272;43.922;2022-12-18T06:38:35;10.05;;;3.25;;
74892;SDS011;63446;56.272;43.922;2022-12-18T06:41:12;11.70;;;4.03;;
74892;SDS011;63446;56.272;43.922;2022-12-18T06:43:39;11.73;;;4.28;;
74892;SDS011;63446;56.272;43.922;2022-12-18T06:46:05;12.63;;;4.30;;
74892;SDS011;63446;56.272;43.922;2022-12-18T06:48:31;11.45;;;3.90;;
74892;SDS011;63446;56.272;43.922;2022-12-18T06:50:57;8.53;;;2.93;;
74892;SDS011;63446;56.272;43.922;2022-12-18T06:53:23;12.05;;;4.22;;
74892;SDS011;63446;56.272;43.922;2022-12-18T06:55:49;11.40;;;4.15;;
74892;SDS011;63446;56.272;43.922;2022-12-18T06:58:15;11.75;;;3.38;;
74892;SDS011;63446;56.272;43.922;2022-12-18T07:00:41;13.10;;;4.70;;
74892;SDS011;63446;56.272;43.922;2022-12-18T07:03:07;12.32;;;3.70;;
74892;SDS011;63446;56.272;43.922;2022-12-18T07:05:33;10.85;;;3.95;;
74892;SDS011;63446;56.272;43.922;2022-12-18T07:07:59;10.35;;;3.47;;
74892;SDS011;63446;56.272;43.922;2022-12-18T07:10:26;9.53;;;2.97;;
74892;SDS011;63446;56.272;43.922;2022-12-18T07:12:53;10.57;;;4.03;;
74892;SDS011;63446;56.272;43.922;2022-12-18T07:15:19;10.68;;;4.28;;
74892;SDS011;63446;56.272;43.922;2022-12-18T07:17:44;10.27;;;4.25;;
74892;SDS011;63446;56.272;43.922;2022-12-18T07:20:10;12.77;;;4.13;;
74892;SDS011;63446;56.272;43.922;2022-12-18T07:22:36;13.70;;;4.18;;
74892;SDS011;63446;56.272;43.922;2022-12-18T07:25:02;16.73;;;4.70;;
74892;SDS011;63446;56.272;43.922;2022-12-18T07:27:28;10.07;;;3.80;;
74892;SDS011;63446;56.272;43.922;2022-12-18T07:29:54;14.30;;;4.63;;
74892;SDS011;63446;56.272;43.922;2022-12-18T07:32:20;13.48;;;3.75;;
74892;SDS011;63446;56.272;43.922;2022-12-18T07:34:46;13.45;;;4.78;;
74892;SDS011;63446;56.272;43.922;2022-12-18T07:37:11;11.65;;;4.43;;
74892;SDS011;63446;56.272;43.922;2022-12-18T07:39:37;10.47;;;4.13;;
74892;SDS011;63446;56.272;43.922;2022-12-18T07:42:03;10.18;;;3.60;;
74892;SDS011;63446;56.272;43.922;2022-12-18T07:44:47;15.25;;;4.30;;
74892;SDS011;63446;56.272;43.922;2022-12-18T07:47:13;12.57;;;4.90;;
74892;SDS011;63446;56.272;43.922;2022-12-18T07:49:38;12.10;;;4.70;;
74892;SDS011;63446;56.272;43.922;2022-12-18T07:52:04;9.50;;;3.50;;
74892;SDS011;63446;56.272;43.922;2022-12-18T07:54:30;11.45;;;3.17;;
74892;SDS011;63446;56.272;43.922;2022-12-18T07:56:56;11.80;;;4.83;;
74892;SDS011;63446;56.272;43.922;2022-12-18T07:59:21;11.48;;;4.60;;
74892;SDS011;63446;56.272;43.922;2022-12-18T08:01:47;13.00;;;5.13;;
74892;SDS011;63446;56.272;43.922;2022-12-18T08:04:15;15.10;;;5.03;;
74892;SDS011;63446;56.272;43.922;2022-12-18T08:06:41;13.13;;;4.53;;
74892;SDS011;63446;56.272;43.922;2022-12-18T08:09:07;14.37;;;6.33;;
74892;SDS011;63446;56.272;43.922;2022-12-18T08:11:35;16.50;;;5.90;;
74892;SDS011;63446;56.272;43.922;2022-12-18T08:14:01;16.70;;;6.07;;
74892;SDS011;63446;56.272;43.922;2022-12-18T08:16:27;14.63;;;5.40;;
74892;SDS011;63446;56.272;43.922;2022-12-18T08:18:53;16.05;;;5.22;;
74892;SDS011;63446;56.272;43.922;2022-12-18T08:21:21;19.67;;;5.57;;
74892;SDS011;63446;56.272;43.922;2022-12-18T08:23:55;17.50;;;6.27;;
74892;SDS011;63446;56.272;43.922;2022-12-18T08:26:24;15.98;;;5.70;;
74892;SDS011;63446;56.272;43.922;2022-12-18T08:28:53;16.42;;;5.55;;
74892;SDS011;63446;56.272;43.922;2022-12-18T08:31:20;18.85;;;6.68;;
74892;SDS011;63446;56.272;43.922;2022-12-18T08:33:50;15.65;;;5.25;;
74892;SDS011;63446;56.272;43.922;2022-12-18T08:36:18;16.07;;;6.73;;
74892;SDS011;63446;56.272;43.922;2022-12-18T08:38:45;16.10;;;6.55;;
74892;SDS011;63446;56.272;43.922;2022-12-18T08:41:12;15.95;;;6.40;;
74892;SDS011;63446;56.272;43.922;2022-12-18T08:43:40;15.57;;;6.68;;
74892;SDS011;63446;56.272;43.922;2022-12-18T08:46:27;15.65;;;6.05;;
74892;SDS011;63446;56.272;43.922;2022-12-18T08:48:59;14.13;;;6.17;;
74892;SDS011;63446;56.272;43.922;2022-12-18T08:51:24;16.02;;;5.60;;
74892;SDS011;63446;56.272;43.922;2022-12-18T08:53:50;16.83;;;6.27;;
74892;SDS011;63446;56.272;43.922;2022-12-18T08:56:17;15.73;;;5.72;;
74892;SDS011;63446;56.272;43.922;2022-12-18T08:58:42;15.18;;;6.30;;
74892;SDS011;63446;56.272;43.922;2022-12-18T09:01:09;14.90;;;5.47;;
74892;SDS011;63446;56.272;43.922;2022-12-18T09:03:38;18.45;;;5.70;;
74892;SDS011;63446;56.272;43.922;2022-12-18T09:06:05;18.02;;;6.70;;
74892;SDS011;63446;56.272;43.922;2022-12-18T09:08:35;29.17;;;9.18;;
74892;SDS011;63446;56.272;43.922;2022-12-18T09:11:02;17.73;;;6.27;;
74892;SDS011;63446;56.272;43.922;2022-12-18T09:13:28;21.63;;;7.15;;
74892;SDS011;63446;56.272;43.922;2022-12-18T09:15:54;18.23;;;5.28;;
74892;SDS011;63446;56.272;43.922;2022-12-18T09:18:21;20.63;;;6.93;;
74892;SDS011;63446;56.272;43.922;2022-12-18T09:20:48;24.75;;;8.07;;
74892;SDS011;63446;56.272;43.922;2022-12-18T09:23:17;31.23;;;9.63;;
74892;SDS011;63446;56.272;43.922;2022-12-18T09:25:43;22.40;;;7.32;;
74892;SDS011;63446;56.272;43.922;2022-12-18T09:28:13;17.83;;;6.87;;
74892;SDS011;63446;56.272;43.922;2022-12-18T09:30:42;16.88;;;6.80;;
74892;SDS011;63446;56.272;43.922;2022-12-18T09:33:10;19.02;;;7.22;;
74892;SDS011;63446;56.272;43.922;2022-12-18T09:35:40;20.45;;;6.47;;
74892;SDS011;63446;56.272;43.922;2022-12-18T09:38:07;16.77;;;6.15;;
74892;SDS011;63446;56.272;43.922;2022-12-18T09:40:40;20.67;;;6.90;;
74892;SDS011;63446;56.272;43.922;2022-12-18T09:43:20;14.32;;;4.93;;
74892;SDS011;63446;56.272;43.922;2022-12-18T09:46:11;13.35;;;5.10;;
74892;SDS011;63446;56.272;43.922;2022-12-18T09:49:03;16.80;;;6.25;;
74892;SDS011;63446;56.272;43.922;2022-12-18T09:51:46;18.23;;;6.57;;
74892;SDS011;63446;56.272;43.922;2022-12-18T09:54:25;17.80;;;6.80;;
74892;SDS011;63446;56.272;43.922;2022-12-18T09:56:58;16.77;;;5.90;;
74892;SDS011;63446;56.272;43.922;2022-12-18T09:59:30;16.60;;;5.90;;
74892;SDS011;63446;56.272;43.922;2022-12-18T10:05:05;17.70;;;6.30;;
74892;SDS011;63446;56.272;43.922;2022-12-18T10:07:42;12.73;;;4.80;;
74892;SDS011;63446;56.272;43.922;2022-12-18T10:13:09;17.02;;;6.07;;
74892;SDS011;63446;56.272;43.922;2022-12-18T10:18:46;15.23;;;5.23;;
74892;SDS011;63446;56.272;43.922;2022-12-18T10:21:45;11.57;;;4.20;;
74892;SDS011;63446;56.272;43.922;2022-12-18T10:24:33;19.00;;;6.72;;
74892;SDS011;63446;56.272;43.922;2022-12-18T10:27:12;18.45;;;6.80;;
74892;SDS011;63446;56.272;43.922;2022-12-18T10:29:42;19.17;;;7.60;;
74892;SDS011;63446;56.272;43.922;2022-12-18T10:32:14;22.20;;;7.23;;
74892;SDS011;63446;56.272;43.922;2022-12-18T10:34:46;17.45;;;6.78;;
74892;SDS011;63446;56.272;43.922;2022-12-18T10:37:18;17.52;;;6.45;;
74892;SDS011;63446;56.272;43.922;2022-12-18T10:39:46;19.75;;;7.18;;
74892;SDS011;63446;56.272;43.922;2022-12-18T10:42:31;22.02;;;7.60;;
74892;SDS011;63446;56.272;43.922;2022-12-18T10:45:05;23.60;;;8.10;;
74892;SDS011;63446;56.272;43.922;2022-12-18T10:47:36;21.08;;;7.07;;
74892;SDS011;63446;56.272;43.922;2022-12-18T10:50:18;18.65;;;7.03;;
74892;SDS011;63446;56.272;43.922;2022-12-18T10:52:54;18.77;;;5.97;;
74892;SDS011;63446;56.272;43.922;2022-12-18T10:55:23;19.10;;;7.20;;
74892;SDS011;63446;56.272;43.922;2022-12-18T10:58:01;22.83;;;7.30;;
74892;SDS011;63446;56.272;43.922;2022-12-18T11:01:08;19.27;;;7.05;;
74892;SDS011;63446;56.272;43.922;2022-12-18T11:03:41;21.70;;;7.18;;
74892;SDS011;63446;56.272;43.922;2022-12-18T11:06:17;20.33;;;7.00;;
74892;SDS011;63446;56.272;43.922;2022-12-18T11:11:26;21.75;;;7.20;;
74892;SDS011;63446;56.272;43.922;2022-12-18T11:14:15;21.15;;;7.18;;
74892;SDS011;63446;56.272;43.922;2022-12-18T11:16:43;21.45;;;7.03;;
74892;SDS011;63446;56.272;43.922;2022-12-18T11:21:49;20.40;;;6.37;;
74892;SDS011;63446;56.272;43.922;2022-12-18T11:26:48;16.88;;;6.05;;
74892;SDS011;63446;56.272;43.922;2022-12-18T11:29:18;17.92;;;6.15;;
74892;SDS011;63446;56.272;43.922;2022-12-18T11:35:10;20.43;;;5.97;;
74892;SDS011;63446;56.272;43.922;2022-12-18T11:37:38;14.70;;;5.97;;
74892;SDS011;63446;56.272;43.922;2022-12-18T11:40:14;17.67;;;5.65;;
74892;SDS011;63446;56.272;43.922;2022-12-18T11:42:58;16.17;;;5.18;;
74892;SDS011;63446;56.272;43.922;2022-12-18T11:45:30;17.85;;;5.65;;
74892;SDS011;63446;56.272;43.922;2022-12-18T11:53:17;16.15;;;6.05;;
74892;SDS011;63446;56.272;43.922;2022-12-18T12:09:39;14.35;;;5.05;;
74892;SDS011;63446;56.272;43.922;2022-12-18T12:12:31;15.18;;;5.05;;
74892;SDS011;63446;56.272;43.922;2022-12-18T12:18:19;15.23;;;5.53;;
74892;SDS011;63446;56.272;43.922;2022-12-18T12:38:05;15.85;;;5.30;;
74892;SDS011;63446;56.272;43.922;2022-12-18T12:40:19;11.75;;;5.32;;
74892;SDS011;63446;56.272;43.922;2022-12-18T12:42:55;15.73;;;6.00;;
74892;SDS011;63446;56.272;43.922;2022-12-18T12:45:41;16.15;;;5.95;;
74892;SDS011;63446;56.272;43.922;2022-12-18T12:51:02;16.33;;;5.85;;
74892;SDS011;63446;56.272;43.922;2022-12-18T12:53:37;12.68;;;4.93;;
74892;SDS011;63446;56.272;43.922;2022-12-18T12:56:04;14.37;;;4.40;;
74892;SDS011;63446;56.272;43.922;2022-12-18T13:09:09;18.43;;;4.73;;
74892;SDS011;63446;56.272;43.922;2022-12-18T13:14:29;16.65;;;4.68;;
74892;SDS011;63446;56.272;43.922;2022-12-18T13:19:42;12.73;;;4.60;;
74892;SDS011;63446;56.272;43.922;2022-12-18T13:22:22;13.38;;;4.68;;
74892;SDS011;63446;56.272;43.922;2022-12-18T13:24:55;12.25;;;4.00;;
74892;SDS011;63446;56.272;43.922;2022-12-18T13:35:51;13.07;;;5.05;;
74892;SDS011;63446;56.272;43.922;2022-12-18T13:40:58;13.82;;;4.75;;
74892;SDS011;63446;56.272;43.922;2022-12-18T13:49:02;11.80;;;4.40;;
74892;SDS011;63446;56.272;43.922;2022-12-18T13:51:32;12.25;;;4.55;;
74892;SDS011;63446;56.272;43.922;2022-12-18T13:54:20;14.75;;;4.85;;
74892;SDS011;63446;56.272;43.922;2022-12-18T13:56:47;16.07;;;5.93;;
74892;SDS011;63446;56.272;43.922;2022-12-18T13:59:18;21.83;;;5.57;;
74892;SDS011;63446;56.272;43.922;2022-12-18T14:01:56;13.45;;;4.53;;
74892;SDS011;63446;56.272;43.922;2022-12-18T14:04:28;17.90;;;5.55;;
74892;SDS011;63446;56.272;43.922;2022-12-18T14:07:06;15.75;;;5.47;;
74892;SDS011;63446;56.272;43.922;2022-12-18T14:09:41;18.80;;;5.40;;
74892;SDS011;63446;56.272;43.922;2022-12-18T14:12:21;15.35;;;5.47;;
74892;SDS011;63446;56.272;43.922;2022-12-18T14:17:50;16.67;;;4.82;;
74892;SDS011;63446;56.272;43.922;2022-12-18T14:20:22;17.05;;;5.63;;
74892;SDS011;63446;56.272;43.922;2022-12-18T14:22:50;20.33;;;5.90;;
74892;SDS011;63446;56.272;43.922;2022-12-18T14:25:18;18.25;;;5.97;;
74892;SDS011;63446;56.272;43.922;2022-12-18T14:27:50;19.30;;;6.85;;
74892;SDS011;63446;56.272;43.922;2022-12-18T14:33:01;17.10;;;5.82;;
74892;SDS011;63446;56.272;43.922;2022-12-18T14:35:28;15.00;;;5.47;;
74892;SDS011;63446;56.272;43.922;2022-12-18T14:38:08;13.43;;;5.20;;
74892;SDS011;63446;56.272;43.922;2022-12-18T14:40:55;16.38;;;5.93;;
74892;SDS011;63446;56.272;43.922;2022-12-18T14:43:26;18.85;;;6.05;;
74892;SDS011;63446;56.272;43.922;2022-12-18T14:45:54;14.37;;;5.67;;
74892;SDS011;63446;56.272;43.922;2022-12-18T14:48:35;18.02;;;5.85;;
74892;SDS011;63446;56.272;43.922;2022-12-18T14:53:42;21.05;;;5.47;;
74892;SDS011;63446;56.272;43.922;2022-12-18T14:56:32;19.85;;;6.50;;
74892;SDS011;63446;56.272;43.922;2022-12-18T14:59:02;18.93;;;6.10;;
74892;SDS011;63446;56.272;43.922;2022-12-18T15:01:44;18.25;;;6.40;;
74892;SDS011;63446;56.272;43.922;2022-12-18T15:04:34;17.30;;;5.93;;
74892;SDS011;63446;56.272;43.922;2022-12-18T15:09:35;18.27;;;6.15;;
74892;SDS011;63446;56.272;43.922;2022-12-18T15:12:01;21.47;;;7.00;;
74892;SDS011;63446;56.272;43.922;2022-12-18T15:17:12;22.65;;;6.72;;
74892;SDS011;63446;56.272;43.922;2022-12-18T15:19:45;18.25;;;5.78;;
74892;SDS011;63446;56.272;43.922;2022-12-18T15:22:18;17.38;;;6.25;;
74892;SDS011;63446;56.272;43.922;2022-12-18T15:24:44;15.83;;;6.00;;
74892;SDS011;63446;56.272;43.922;2022-12-18T15:30:02;18.48;;;6.03;;
74892;SDS011;63446;56.272;43.922;2022-12-18T15:32:36;18.93;;;6.87;;
74892;SDS011;63446;56.272;43.922;2022-12-18T15:35:19;20.90;;;6.63;;
74892;SDS011;63446;56.272;43.922;2022-12-18T15:37:47;20.77;;;5.97;;
74892;SDS011;63446;56.272;43.922;2022-12-18T15:40:15;16.27;;;5.70;;
74892;SDS011;63446;56.272;43.922;2022-12-18T15:42:43;17.80;;;6.43;;
74892;SDS011;63446;56.272;43.922;2022-12-18T15:45:29;15.40;;;5.57;;
74892;SDS011;63446;56.272;43.922;2022-12-18T15:47:55;14.32;;;5.63;;
74892;SDS011;63446;56.272;43.922;2022-12-18T15:50:21;15.32;;;5.47;;
74892;SDS011;63446;56.272;43.922;2022-12-18T15:52:48;16.42;;;5.82;;
74892;SDS011;63446;56.272;43.922;2022-12-18T15:55:17;12.82;;;4.30;;
74892;SDS011;63446;56.272;43.922;2022-12-18T15:58:04;12.17;;;5.17;;
74892;SDS011;63446;56.272;43.922;2022-12-18T16:00:32;15.65;;;4.97;;
74892;SDS011;63446;56.272;43.922;2022-12-18T16:02:59;13.48;;;4.68;;
74892;SDS011;63446;56.272;43.922;2022-12-18T16:05:25;14.88;;;5.53;;
74892;SDS011;63446;56.272;43.922;2022-12-18T16:07:52;13.85;;;5.00;;
74892;SDS011;63446;56.272;43.922;2022-12-18T16:10:18;18.00;;;5.10;;
74892;SDS011;63446;56.272;43.922;2022-12-18T16:12:45;14.30;;;4.75;;
74892;SDS011;63446;56.272;43.922;2022-12-18T16:15:13;13.82;;;4.65;;
74892;SDS011;63446;56.272;43.922;2022-12-18T16:17:42;11.05;;;4.10;;
74892;SDS011;63446;56.272;43.922;2022-12-18T16:20:15;13.83;;;5.23;;
74892;SDS011;63446;56.272;43.922;2022-12-18T16:22:43;13.23;;;5.15;;
74892;SDS011;63446;56.272;43.922;2022-12-18T16:25:23;15.98;;;5.82;;
74892;SDS011;63446;56.272;43.922;2022-12-18T16:27:52;13.98;;;5.07;;
74892;SDS011;63446;56.272;43.922;2022-12-18T16:30:21;16.10;;;5.25;;
74892;SDS011;63446;56.272;43.922;2022-12-18T16:32:53;13.80;;;4.53;;
74892;SDS011;63446;56.272;43.922;2022-12-18T16:35:22;13.60;;;4.55;;
74892;SDS011;63446;56.272;43.922;2022-12-18T16:37:48;14.45;;;5.07;;
74892;SDS011;63446;56.272;43.922;2022-12-18T16:40:14;13.07;;;4.88;;
74892;SDS011;63446;56.272;43.922;2022-12-18T16:42:42;14.90;;;5.18;;
74892;SDS011;63446;56.272;43.922;2022-12-18T16:45:10;15.00;;;5.20;;
74892;SDS011;63446;56.272;43.922;2022-12-18T16:47:37;15.32;;;5.28;;
74892;SDS011;63446;56.272;43.922;2022-12-18T16:50:04;13.10;;;4.93;;
74892;SDS011;63446;56.272;43.922;2022-12-18T16:52:30;12.40;;;4.60;;
74892;SDS011;63446;56.272;43.922;2022-12-18T16:54:56;12.35;;;5.05;;
74892;SDS011;63446;56.272;43.922;2022-12-18T16:57:22;12.60;;;4.38;;
74892;SDS011;63446;56.272;43.922;2022-12-18T16:59:48;13.70;;;4.53;;
74892;SDS011;63446;56.272;43.922;2022-12-18T17:02:15;17.20;;;5.47;;
74892;SDS011;63446;56.272;43.922;2022-12-18T17:04:45;13.07;;;4.35;;
74892;SDS011;63446;56.272;43.922;2022-12-18T17:07:11;30.02;;;9.40;;
74892;SDS011;63446;56.272;43.922;2022-12-18T17:09:38;17.37;;;5.27;;
74892;SDS011;63446;56.272;43.922;2022-12-18T17:12:04;13.80;;;4.35;;
74892;SDS011;63446;56.272;43.922;2022-12-18T17:14:31;14.63;;;4.10;;
74892;SDS011;63446;56.272;43.922;2022-12-18T17:16:57;14.20;;;4.80;;